To NAV CANADA Home Page Login to a new session Search on AWWS site Feedback and Comments Disclaimer Vers la page française équivalente Tips FAQ What's new on the site To the Forecasts and Observations / NOTAM section To "File a Flight Plan" website Publications and other links Update of the User's profile FIC Telephone Numbers My Weather Data Folder Route Weather Data Regional Weather Data Local Weather Data To the Forecasts and Observations / NOTAM section
Request Generated 08/05/2015 at 12:25:28 UTC . Weather information available at that time is displayed.

METAR/TAF

EDMONTON/EDMONTON INTL/AB    

METAR CYEG 051200Z 36003KT 6SM BR BKN006 OVC012 14/14 A2989 RMK
ST7SC1 SLP122 DENSITY ALT 2800FT=
SPECI CYEG 051133Z 36004KT 8SM BKN005 OVC013 14/13 A2989 RMK ST6SC2
BR SLP125 DENSITY ALT 2800FT=
SPECI CYEG 051108Z 31002KT 10SM SCT009 BKN120 13/13 A2990 RMK ST4AC3
BR SLP127 DENSITY ALT 2700FT=
METAR CYEG 051100Z 32003KT 15SM FEW016 BKN120 13/13 A2989 RMK SC2AC5
OCNL -SHRA SLP126 DENSITY ALT 2700FT=
SPECI CYEG 051048Z 32003KT 15SM -SHRA SCT016 BKN120 13/13 A2989 RMK
SC3AC4 SLP126 DENSITY ALT 2700FT=
METAR CYEG 051000Z 36005KT 15SM FEW015 BKN120 13/13 A2990 RMK SC2AC5
VIRGA SLP127 DENSITY ALT 2700FT=

TAF CYEG 051138Z 0512/0612 32005KT P6SM SCT012 BKN100 BKN220 TEMPO
0512/0516 P6SM -SHRA BKN008
FM051600 32006KT P6SM VCSH BKN030 TEMPO 0516/0520 P6SM -SHRA
OVC015
FM052000 31012KT P6SM BKN040 TEMPO 0520/0602 P6SM -SHRA PROB40
0520/0602 4SM TSRA BKN030CB
FM060200 34008KT P6SM BKN040
FM060400 24005KT P6SM SCT040
FM060800 24005KT P6SM BKN030 BKN220
RMK NXT FCST BY 051500Z=
Your time UTC time
Weather data provided by Environment Canada and NAV CANADA